createdAt,value
2023-11-15T10:40:48.014Z,16.36
2023-11-15T10:43:18.594Z,16.11
2023-11-15T10:45:47.266Z,16.41
2023-11-15T10:48:22.153Z,16.76
2023-11-15T10:50:58.285Z,15.99
2023-11-15T10:53:28.271Z,15.80
2023-11-15T10:55:58.798Z,15.64
2023-11-15T10:58:27.736Z,16.68
2023-11-15T11:00:56.602Z,15.82
2023-11-15T11:03:26.538Z,15.40
2023-11-15T11:06:05.146Z,16.55
2023-11-15T11:08:55.607Z,16.00
2023-11-15T11:11:34.968Z,15.60
2023-11-15T11:14:22.357Z,16.05
2023-11-15T11:16:50.741Z,15.26
2023-11-15T11:19:28.407Z,17.27
2023-11-15T11:22:18.945Z,16.19
2023-11-15T11:25:08.471Z,17.12
2023-11-15T11:27:38.147Z,17.28
2023-11-15T11:30:14.810Z,17.00
2023-11-15T11:32:45.894Z,18.96
2023-11-15T11:35:21.814Z,17.77
2023-11-15T11:37:57.079Z,20.18
2023-11-15T11:40:29.808Z,17.69
2023-11-15T11:43:12.275Z,17.08
2023-11-15T11:45:42.309Z,17.00
2023-11-15T11:48:37.986Z,17.96
2023-11-15T11:51:07.321Z,16.94
2023-11-15T11:53:48.197Z,16.85
2023-11-15T11:56:15.946Z,16.67
2023-11-15T11:58:44.110Z,18.51
2023-11-15T12:01:12.906Z,16.38
2023-11-15T12:03:49.093Z,16.47
2023-11-15T12:06:19.315Z,15.58
2023-11-15T12:08:50.518Z,15.84
2023-11-15T12:11:21.428Z,16.13
2023-11-15T12:13:51.960Z,16.20
2023-11-15T12:16:26.880Z,15.95
2023-11-15T12:19:02.788Z,16.22
2023-11-15T12:21:36.838Z,16.65
2023-11-15T12:24:11.398Z,16.74
2023-11-15T12:26:47.842Z,19.52
2023-11-15T12:29:27.907Z,19.91
2023-11-15T12:31:57.912Z,19.00
2023-11-15T12:34:26.193Z,17.50
2023-11-15T12:36:54.125Z,17.03
2023-11-15T12:39:23.466Z,17.52
2023-11-15T12:41:54.518Z,16.77
2023-11-15T12:44:22.702Z,16.74
2023-11-15T12:46:52.420Z,16.06
2023-11-15T12:49:27.339Z,16.55
2023-11-15T12:51:55.646Z,16.28
2023-11-15T12:54:23.222Z,16.13
2023-11-15T12:57:14.140Z,16.05
2023-11-15T12:59:43.473Z,15.77
2023-11-15T13:02:18.619Z,15.92
2023-11-15T13:04:51.865Z,16.10
2023-11-15T13:07:19.712Z,15.78
2023-11-15T13:09:47.784Z,16.60
2023-11-15T13:12:25.914Z,17.64
2023-11-15T13:14:54.760Z,18.54
2023-11-15T13:17:22.399Z,20.09
2023-11-15T13:19:50.119Z,17.51
2023-11-15T13:22:17.781Z,16.61
2023-11-15T13:24:49.975Z,16.10
2023-11-15T13:27:19.193Z,16.28
2023-11-15T13:29:47.117Z,16.46
2023-11-15T13:32:15.760Z,15.79
2023-11-15T13:34:45.911Z,16.01
2023-11-15T13:37:16.328Z,15.15
2023-11-15T13:39:43.824Z,15.43
2023-11-15T13:42:11.865Z,15.69
2023-11-15T13:44:39.788Z,15.83
2023-11-15T13:47:08.193Z,15.60
2023-11-15T13:49:35.780Z,15.80
2023-11-15T13:52:03.373Z,15.22
2023-11-15T13:54:31.780Z,15.06
2023-11-15T13:56:59.545Z,15.43
2023-11-15T13:59:29.541Z,15.54
2023-11-15T14:01:57.153Z,15.57
2023-11-15T14:04:24.703Z,15.64
2023-11-15T14:06:53.718Z,15.81
2023-11-15T14:09:25.920Z,15.25
2023-11-15T14:11:53.580Z,15.64
2023-11-15T14:14:21.110Z,15.47
2023-11-15T14:16:48.661Z,15.57
2023-11-15T14:19:16.820Z,16.24
2023-11-15T14:21:45.577Z,16.06
2023-11-15T14:24:13.288Z,15.96
2023-11-15T14:26:41.127Z,15.62
2023-11-15T14:29:09.839Z,15.31
2023-11-15T14:31:39.080Z,15.42
2023-11-15T14:34:08.565Z,15.59
2023-11-15T14:36:38.578Z,15.60
2023-11-15T14:39:08.766Z,15.12
2023-11-15T14:41:36.461Z,15.37
2023-11-15T14:44:05.176Z,15.26
2023-11-15T14:46:34.126Z,15.68
2023-11-15T14:49:01.816Z,15.93
2023-11-15T14:51:29.545Z,15.16
2023-11-15T14:53:57.303Z,15.94
2023-11-15T14:56:25.253Z,15.30
2023-11-15T14:58:54.546Z,15.66
2023-11-15T15:01:24.862Z,15.91
2023-11-15T15:03:53.532Z,16.04
2023-11-15T15:06:21.395Z,15.69
2023-11-15T15:08:49.011Z,15.38
2023-11-15T15:11:16.594Z,15.30
2023-11-15T15:13:44.116Z,15.65
2023-11-15T15:16:12.999Z,15.59
2023-11-15T15:18:41.793Z,15.39
2023-11-15T15:21:11.036Z,15.14
2023-11-15T15:23:38.760Z,15.89
2023-11-15T15:26:06.546Z,15.86
2023-11-15T15:28:34.487Z,15.52
2023-11-15T15:31:02.221Z,15.62
2023-11-15T15:33:30.134Z,14.84
2023-11-15T15:35:58.671Z,15.42
2023-11-15T15:38:26.958Z,15.35
2023-11-15T15:40:55.474Z,15.59
2023-11-15T15:43:23.072Z,15.34
2023-11-15T15:45:50.708Z,15.36
2023-11-15T15:48:19.095Z,14.98
2023-11-15T15:50:48.689Z,14.96
2023-11-15T15:53:16.213Z,15.14
2023-11-15T15:55:44.382Z,14.86
2023-11-15T15:58:12.081Z,14.97
2023-11-15T16:00:39.712Z,15.07
2023-11-15T16:03:07.472Z,15.10
2023-11-15T16:05:35.081Z,15.19
2023-11-15T16:08:02.727Z,14.91
2023-11-15T16:10:30.327Z,15.33
2023-11-15T16:12:58.686Z,15.51
2023-11-15T16:15:26.713Z,14.85
2023-11-15T16:17:55.500Z,15.42
2023-11-15T16:20:23.188Z,15.61
2023-11-15T16:22:52.710Z,15.32
2023-11-15T16:25:20.374Z,15.49
2023-11-15T16:27:47.953Z,15.24
2023-11-15T16:30:15.751Z,14.92
2023-11-15T16:32:44.069Z,15.01
2023-11-15T16:35:11.885Z,14.64
2023-11-15T16:37:42.869Z,15.18
2023-11-15T16:40:11.529Z,15.35
2023-11-15T16:42:40.228Z,15.12
2023-11-15T16:45:09.677Z,15.13
2023-11-15T16:47:40.142Z,15.04
2023-11-15T16:50:09.084Z,15.13
2023-11-15T16:52:36.882Z,15.11
2023-11-15T16:55:06.671Z,15.06
2023-11-15T16:57:34.750Z,15.27
2023-11-15T17:00:02.617Z,15.24
2023-11-15T17:02:31.055Z,15.09
2023-11-15T17:04:58.640Z,14.98
2023-11-15T17:07:26.168Z,14.85
2023-11-15T17:09:53.831Z,14.84
2023-11-15T17:12:24.438Z,15.17
2023-11-15T17:14:52.578Z,14.92
2023-11-15T17:17:20.172Z,15.01
2023-11-15T17:19:47.827Z,14.85
2023-11-15T17:22:15.521Z,14.91
2023-11-15T17:24:44.203Z,15.52
2023-11-15T17:27:11.959Z,15.46
2023-11-15T17:29:40.680Z,15.15
2023-11-15T17:32:08.474Z,14.61
2023-11-15T17:34:37.199Z,14.72
2023-11-15T17:37:04.759Z,14.65
2023-11-15T17:39:32.464Z,15.04
2023-11-15T17:42:00.089Z,15.18
2023-11-15T17:44:27.946Z,14.48
2023-11-15T17:46:55.818Z,14.65
2023-11-15T17:49:23.479Z,14.94
2023-11-15T17:51:51.004Z,14.32
2023-11-15T17:54:19.942Z,14.75
2023-11-15T17:56:47.695Z,14.80
2023-11-15T17:59:15.381Z,14.84
2023-11-15T18:01:43.962Z,14.18
2023-11-15T18:04:15.063Z,14.19
2023-11-15T18:06:43.241Z,14.39
2023-11-15T18:09:11.532Z,14.24
2023-11-15T18:11:39.560Z,14.05
2023-11-15T18:14:07.409Z,13.82
2023-11-15T18:16:35.326Z,13.93
2023-11-15T18:19:08.768Z,13.94
2023-11-15T18:21:36.991Z,14.06
2023-11-15T18:24:04.806Z,14.12
2023-11-15T18:26:33.762Z,13.96
2023-11-15T18:29:01.655Z,13.99
2023-11-15T18:31:29.622Z,13.93
2023-11-15T18:33:59.133Z,13.95
2023-11-15T18:36:27.486Z,13.85
2023-11-15T18:38:55.737Z,14.08
2023-11-15T18:41:23.508Z,13.65
2023-11-15T18:43:51.172Z,13.92
2023-11-15T18:46:18.885Z,13.72
2023-11-15T18:48:48.753Z,13.78
2023-11-15T18:51:23.125Z,13.92
2023-11-15T18:53:51.293Z,13.65
2023-11-15T18:56:19.285Z,13.87
2023-11-15T18:58:47.002Z,14.02
2023-11-15T19:01:14.785Z,14.09
2023-11-15T19:03:44.289Z,13.95
2023-11-15T19:06:11.999Z,14.00
2023-11-15T19:08:42.362Z,14.17
2023-11-15T19:11:10.088Z,14.22
2023-11-15T19:13:38.381Z,13.59
2023-11-15T19:16:08.705Z,14.33
2023-11-15T19:18:36.390Z,14.19
2023-11-15T19:21:04.987Z,13.83
2023-11-15T19:23:33.075Z,14.23
2023-11-15T19:26:00.781Z,14.20
2023-11-15T19:28:28.347Z,14.44
2023-11-15T19:30:55.856Z,14.33
2023-11-15T19:33:23.796Z,13.95
2023-11-15T19:35:51.733Z,13.78
2023-11-15T19:38:20.202Z,13.51
2023-11-15T19:40:48.250Z,13.90
2023-11-15T19:43:16.096Z,13.79
2023-11-15T19:45:43.701Z,13.72
2023-11-15T19:48:12.285Z,13.70
2023-11-15T19:50:41.162Z,13.62
2023-11-15T19:53:08.969Z,14.14
2023-11-15T19:55:36.935Z,13.75
2023-11-15T19:58:05.932Z,13.96
2023-11-15T20:00:36.864Z,14.04
2023-11-15T20:03:08.723Z,14.94
2023-11-15T20:05:39.952Z,14.98
2023-11-15T20:08:08.947Z,14.10
2023-11-15T20:10:37.346Z,13.30
2023-11-15T20:13:06.530Z,13.59
2023-11-15T20:15:35.028Z,13.80
2023-11-15T20:18:03.547Z,14.11
2023-11-15T20:20:32.562Z,14.50
2023-11-15T20:23:01.581Z,13.62
2023-11-15T20:25:29.734Z,14.24
2023-11-15T20:27:57.421Z,14.58
2023-11-15T20:30:26.913Z,13.82
2023-11-15T20:32:56.534Z,14.47
2023-11-15T20:35:24.767Z,14.22
2023-11-15T20:37:52.825Z,14.07
2023-11-15T20:40:23.301Z,14.34
2023-11-15T20:42:51.171Z,14.08
2023-11-15T20:45:18.750Z,13.60
2023-11-15T20:47:46.585Z,13.79
2023-11-15T20:50:14.495Z,13.25
2023-11-15T20:52:42.378Z,14.49
2023-11-15T20:55:13.778Z,14.14
2023-11-15T20:57:41.384Z,14.12
2023-11-15T21:00:14.375Z,13.73
2023-11-15T21:02:42.151Z,13.68
2023-11-15T21:05:11.948Z,13.38
2023-11-15T21:07:40.627Z,13.51
2023-11-15T21:10:08.993Z,14.18
2023-11-15T21:12:37.106Z,14.10
2023-11-15T21:15:06.227Z,13.97
2023-11-15T21:17:34.120Z,13.52
2023-11-15T21:20:11.190Z,13.93
2023-11-15T21:22:45.930Z,13.87
2023-11-15T21:25:14.011Z,13.52
2023-11-15T21:27:43.187Z,13.64
2023-11-15T21:30:13.249Z,14.35
2023-11-15T21:32:42.379Z,14.32
2023-11-15T21:35:11.893Z,14.95
2023-11-15T21:37:43.522Z,15.12
2023-11-15T21:40:15.283Z,14.85
2023-11-15T21:42:45.707Z,14.47
2023-11-15T21:45:14.846Z,13.85
2023-11-15T21:47:43.940Z,14.31
2023-11-15T21:50:16.056Z,13.77
2023-11-15T21:52:44.568Z,14.20
2023-11-15T21:55:12.291Z,14.20
2023-11-15T21:57:39.937Z,14.00
2023-11-15T22:00:10.153Z,12.95
2023-11-15T22:02:37.801Z,13.77
2023-11-15T22:05:06.253Z,13.44
2023-11-15T22:07:33.869Z,12.73
2023-11-15T22:10:01.442Z,13.27
2023-11-15T22:12:29.005Z,12.38
2023-11-15T22:14:56.705Z,13.51
2023-11-15T22:17:24.240Z,14.01
2023-11-15T22:19:52.242Z,13.46
2023-11-15T22:22:19.754Z,13.36
2023-11-15T22:24:47.777Z,13.66
2023-11-15T22:27:15.478Z,12.93
2023-11-15T22:29:43.145Z,13.12
2023-11-15T22:32:10.664Z,12.75
2023-11-15T22:34:38.276Z,13.03
2023-11-15T22:37:08.027Z,13.47
2023-11-15T22:39:35.679Z,13.09
2023-11-15T22:42:04.478Z,13.13
2023-11-15T22:44:31.977Z,13.84
2023-11-15T22:46:59.656Z,14.22
2023-11-15T22:49:27.208Z,13.81
2023-11-15T22:51:54.855Z,13.92
2023-11-15T22:54:22.421Z,13.07
2023-11-15T22:56:50.070Z,13.47
2023-11-15T22:59:17.657Z,13.01
2023-11-15T23:01:45.775Z,12.13
2023-11-15T23:04:16.661Z,11.98
2023-11-15T23:06:48.485Z,12.10
2023-11-15T23:09:16.647Z,11.91
2023-11-15T23:11:44.253Z,11.76
2023-11-15T23:14:11.820Z,11.34
2023-11-15T23:16:41.491Z,11.24
2023-11-15T23:19:09.480Z,11.76
2023-11-15T23:21:38.457Z,12.62
2023-11-15T23:24:07.692Z,13.00
2023-11-15T23:26:35.373Z,12.39
2023-11-15T23:29:02.964Z,12.99
2023-11-15T23:31:30.622Z,12.45
2023-11-15T23:33:58.195Z,12.44
2023-11-15T23:36:25.901Z,12.20
2023-11-15T23:38:53.795Z,12.14
2023-11-15T23:41:21.383Z,12.62
2023-11-15T23:43:50.754Z,12.07
2023-11-15T23:46:19.117Z,12.29
2023-11-15T23:48:46.793Z,13.06
2023-11-15T23:51:14.439Z,13.17
2023-11-15T23:53:42.121Z,12.68
2023-11-15T23:56:11.228Z,12.73
2023-11-15T23:58:38.851Z,13.51
